createdAt,value
2023-03-13T00:01:22.911Z,6.38
2023-03-13T00:03:50.146Z,6.43
2023-03-13T00:06:17.786Z,6.42
2023-03-13T00:08:45.075Z,6.46
2023-03-13T00:11:13.844Z,6.44
2023-03-13T00:13:41.597Z,6.44
2023-03-13T00:16:11.020Z,6.35
2023-03-13T00:18:38.962Z,6.38
2023-03-13T00:21:08.214Z,6.45
2023-03-13T00:23:36.171Z,6.42
2023-03-13T00:26:06.330Z,6.27
2023-03-13T00:28:34.888Z,6.37
2023-03-13T00:31:10.014Z,6.39
2023-03-13T00:33:42.270Z,6.41
2023-03-13T00:36:11.852Z,6.49
2023-03-13T00:38:39.498Z,6.49
2023-03-13T00:41:13.122Z,6.49
2023-03-13T00:43:41.871Z,6.50
2023-03-13T00:46:09.642Z,6.59
2023-03-13T00:48:37.348Z,6.62
2023-03-13T00:51:05.498Z,6.56
2023-03-13T00:53:32.736Z,6.50
2023-03-13T00:56:02.513Z,6.57
2023-03-13T00:58:32.666Z,6.47
2023-03-13T01:01:11.063Z,6.44
2023-03-13T01:03:39.201Z,6.45
2023-03-13T01:06:09.152Z,6.47
2023-03-13T01:08:37.176Z,6.51
2023-03-13T01:11:10.800Z,6.52
2023-03-13T01:13:38.531Z,6.56
2023-03-13T01:16:07.936Z,6.59
2023-03-13T01:18:37.425Z,6.58
2023-03-13T01:21:05.055Z,6.56
2023-03-13T01:23:32.607Z,6.59
2023-03-13T01:25:59.895Z,6.59
2023-03-13T01:28:28.145Z,6.57
2023-03-13T01:30:55.419Z,6.61
2023-03-13T01:33:22.995Z,6.58
2023-03-13T01:35:50.422Z,6.67
2023-03-13T01:38:17.836Z,6.60
2023-03-13T01:40:47.410Z,6.67
2023-03-13T01:43:26.659Z,6.76
2023-03-13T01:46:02.131Z,6.80
2023-03-13T01:48:47.304Z,6.69
2023-03-13T01:51:21.233Z,6.69
2023-03-13T01:54:02.125Z,6.70
2023-03-13T01:56:35.088Z,6.68
2023-03-13T01:59:03.360Z,6.63
2023-03-13T02:01:30.903Z,6.83
2023-03-13T02:03:58.890Z,6.85
2023-03-13T02:06:30.244Z,6.86
2023-03-13T02:09:05.254Z,6.82
2023-03-13T02:11:52.651Z,6.68
2023-03-13T02:14:22.449Z,6.79
2023-03-13T02:16:52.122Z,6.86
2023-03-13T02:19:33.314Z,6.78
2023-03-13T02:22:24.061Z,6.88
2023-03-13T02:25:04.177Z,6.86
2023-03-13T02:27:31.399Z,6.94
2023-03-13T02:29:59.292Z,6.99
2023-03-13T02:32:27.842Z,6.93
2023-03-13T02:34:58.684Z,6.96
2023-03-13T02:37:27.916Z,6.95
2023-03-13T02:39:55.436Z,7.03
2023-03-13T02:42:23.878Z,6.91
2023-03-13T02:44:52.234Z,6.96
2023-03-13T02:47:21.512Z,6.96
2023-03-13T02:49:48.995Z,6.97
2023-03-13T02:52:32.241Z,7.03
2023-03-13T02:55:03.380Z,6.97
2023-03-13T02:57:31.807Z,7.05
2023-03-13T02:59:59.304Z,7.01
2023-03-13T03:02:26.509Z,6.99
2023-03-13T03:04:54.006Z,7.00
2023-03-13T03:07:21.226Z,7.05
2023-03-13T03:09:48.465Z,7.05
2023-03-13T03:12:15.733Z,7.09
2023-03-13T03:14:43.012Z,7.17
2023-03-13T03:17:10.372Z,7.23
2023-03-13T03:19:37.613Z,7.13
2023-03-13T03:22:04.923Z,7.16
2023-03-13T03:24:32.221Z,7.19
2023-03-13T03:26:59.693Z,7.15
2023-03-13T03:29:27.890Z,7.19
2023-03-13T03:31:55.419Z,7.18
2023-03-13T03:34:23.069Z,7.10
2023-03-13T03:36:50.348Z,7.14
2023-03-13T03:39:17.993Z,7.19
2023-03-13T03:41:45.234Z,7.18
2023-03-13T03:44:12.530Z,7.21
2023-03-13T03:46:39.768Z,7.15
2023-03-13T03:49:07.313Z,7.29
2023-03-13T03:51:34.581Z,7.27
2023-03-13T03:54:01.856Z,7.31
2023-03-13T03:56:29.035Z,7.36
2023-03-13T03:58:56.316Z,7.33
2023-03-13T04:01:23.536Z,7.34
2023-03-13T04:03:50.759Z,7.38
2023-03-13T04:06:18.008Z,7.34
2023-03-13T04:08:45.236Z,7.45
2023-03-13T04:11:12.483Z,7.32
2023-03-13T04:13:39.686Z,7.33
2023-03-13T04:16:10.724Z,7.31
2023-03-13T04:18:38.007Z,7.32
2023-03-13T04:21:06.848Z,7.31
2023-03-13T04:23:34.375Z,7.42
2023-03-13T04:26:01.627Z,7.41
2023-03-13T04:28:28.853Z,7.37
2023-03-13T04:30:57.499Z,7.33
2023-03-13T04:33:25.529Z,7.39
2023-03-13T04:36:17.646Z,7.37
2023-03-13T04:38:44.939Z,7.29
2023-03-13T04:41:12.253Z,7.39
2023-03-13T04:43:39.534Z,7.39
2023-03-13T04:46:06.878Z,7.42
2023-03-13T04:48:34.255Z,7.39
2023-03-13T04:51:01.621Z,7.32
2023-03-13T04:53:28.839Z,7.36
2023-03-13T04:55:56.101Z,7.38
2023-03-13T04:58:23.381Z,7.33
2023-03-13T05:00:50.586Z,7.33
2023-03-13T05:03:17.782Z,7.34
2023-03-13T05:05:45.084Z,7.35
2023-03-13T05:08:13.149Z,7.30
2023-03-13T05:10:42.175Z,7.34
2023-03-13T05:13:09.647Z,7.35
2023-03-13T05:15:37.148Z,7.30
2023-03-13T05:18:04.490Z,7.30
2023-03-13T05:20:31.698Z,7.28
2023-03-13T05:22:59.050Z,7.35
2023-03-13T05:25:26.348Z,7.39
2023-03-13T05:27:53.610Z,7.40
2023-03-13T05:30:21.005Z,7.35
2023-03-13T05:32:48.331Z,7.31
2023-03-13T05:35:15.636Z,7.33
2023-03-13T05:37:43.418Z,7.35
2023-03-13T05:40:11.239Z,7.34
2023-03-13T05:42:38.431Z,7.32
2023-03-13T05:45:06.262Z,7.38
2023-03-13T05:47:33.693Z,7.32
2023-03-13T05:50:01.211Z,7.27
2023-03-13T05:52:29.635Z,7.31
2023-03-13T05:54:56.875Z,7.29
2023-03-13T05:57:31.230Z,7.29
2023-03-13T05:59:59.543Z,7.28
2023-03-13T06:02:27.037Z,7.30
2023-03-13T06:04:54.480Z,7.31
2023-03-13T06:07:21.896Z,7.29
2023-03-13T06:09:55.674Z,7.30
2023-03-13T06:12:23.011Z,7.28
2023-03-13T06:14:50.188Z,7.28
2023-03-13T06:17:17.646Z,7.20
2023-03-13T06:19:46.144Z,7.28
2023-03-13T06:22:13.346Z,7.32
2023-03-13T06:24:40.813Z,7.33
2023-03-13T06:27:08.497Z,7.33
2023-03-13T06:29:35.714Z,7.28
2023-03-13T06:32:03.167Z,7.24
2023-03-13T06:34:30.791Z,7.30
2023-03-13T06:36:59.042Z,7.30
2023-03-13T06:39:26.427Z,7.28
2023-03-13T06:41:53.681Z,7.34
2023-03-13T06:44:21.060Z,7.34
2023-03-13T06:46:48.814Z,7.38
2023-03-13T06:49:17.317Z,7.40
2023-03-13T06:51:44.650Z,7.35
2023-03-13T06:54:11.969Z,7.40
2023-03-13T06:56:39.443Z,7.49
2023-03-13T06:59:06.880Z,7.52
2023-03-13T07:01:34.195Z,7.52
2023-03-13T07:04:01.690Z,7.49
2023-03-13T07:06:29.183Z,7.51
2023-03-13T07:08:56.818Z,7.52
2023-03-13T07:11:25.279Z,7.53
2023-03-13T07:14:06.534Z,7.53
2023-03-13T07:16:45.568Z,7.66
2023-03-13T07:19:13.202Z,7.59
2023-03-13T07:21:40.549Z,7.56
2023-03-13T07:24:08.538Z,7.46
2023-03-13T07:26:35.856Z,7.57
2023-03-13T07:29:05.005Z,7.55
2023-03-13T07:31:35.216Z,7.66
2023-03-13T07:34:02.536Z,7.78
2023-03-13T07:36:30.912Z,7.79
2023-03-13T07:38:58.337Z,7.81
2023-03-13T07:41:25.694Z,7.78
2023-03-13T07:43:52.942Z,7.84
2023-03-13T07:46:29.500Z,7.89
2023-03-13T07:48:56.889Z,8.00
2023-03-13T07:51:42.176Z,7.98
2023-03-13T07:54:10.755Z,7.99
2023-03-13T07:56:42.824Z,8.08
2023-03-13T07:59:11.606Z,8.14
2023-03-13T08:01:38.943Z,8.15
2023-03-13T08:04:06.263Z,8.17
2023-03-13T08:06:37.456Z,8.24
2023-03-13T08:09:06.647Z,8.16
2023-03-13T08:11:33.926Z,8.22
2023-03-13T08:14:01.356Z,8.29
2023-03-13T08:16:30.495Z,8.40
2023-03-13T08:19:00.711Z,8.38
2023-03-13T08:21:30.124Z,8.44
2023-03-13T08:23:59.348Z,8.45
2023-03-13T08:26:27.986Z,8.40
2023-03-13T08:28:57.637Z,8.44
2023-03-13T08:31:27.861Z,8.50
2023-03-13T08:33:55.294Z,8.52
2023-03-13T08:36:28.049Z,8.58
2023-03-13T08:38:57.977Z,8.56
2023-03-13T08:41:28.670Z,8.57
2023-03-13T08:43:56.880Z,8.65
2023-03-13T08:46:24.356Z,8.79
2023-03-13T08:48:52.743Z,8.82
2023-03-13T08:51:21.527Z,8.80
2023-03-13T08:53:48.778Z,8.78
2023-03-13T08:56:18.150Z,8.85
2023-03-13T08:58:48.923Z,8.91
2023-03-13T09:01:16.724Z,8.83
2023-03-13T09:03:44.580Z,9.01
2023-03-13T09:06:12.387Z,9.10
2023-03-13T09:08:40.980Z,9.08
2023-03-13T09:11:12.101Z,9.08
2023-03-13T09:13:42.704Z,9.08
2023-03-13T09:16:15.588Z,9.05
2023-03-13T09:18:43.494Z,9.13
2023-03-13T09:21:14.206Z,9.10
2023-03-13T09:23:41.608Z,9.14
2023-03-13T09:26:09.164Z,9.31
2023-03-13T09:28:37.494Z,9.29
2023-03-13T09:31:14.827Z,9.30
2023-03-13T09:33:43.290Z,9.32
2023-03-13T09:36:11.125Z,9.35
2023-03-13T09:38:39.347Z,9.41
2023-03-13T09:41:22.951Z,9.46
2023-03-13T09:44:23.214Z,9.62
2023-03-13T09:47:04.461Z,9.46
2023-03-13T09:49:40.150Z,9.54
2023-03-13T09:52:19.457Z,9.51
2023-03-13T09:54:55.531Z,9.57
2023-03-13T09:57:36.201Z,9.63
2023-03-13T10:00:19.876Z,9.63
2023-03-13T10:02:59.378Z,9.59
2023-03-13T10:05:28.367Z,9.64
2023-03-13T10:08:22.862Z,9.84
2023-03-13T10:11:27.370Z,9.98
2023-03-13T10:14:10.881Z,10.16
2023-03-13T10:16:44.958Z,10.30
2023-03-13T10:19:16.135Z,10.29
2023-03-13T10:21:45.215Z,10.32
2023-03-13T10:24:30.498Z,10.41
2023-03-13T10:26:58.810Z,10.25
2023-03-13T10:29:30.763Z,10.29
2023-03-13T10:32:02.671Z,10.44
2023-03-13T10:35:01.947Z,10.52
2023-03-13T10:37:31.522Z,10.60
2023-03-13T10:40:20.519Z,10.64
2023-03-13T10:42:47.833Z,10.71
2023-03-13T10:45:18.198Z,10.76
2023-03-13T10:47:45.547Z,10.86
2023-03-13T10:50:19.525Z,10.95
2023-03-13T10:52:48.267Z,11.01
2023-03-13T10:55:24.244Z,11.11
2023-03-13T10:57:58.613Z,11.09
2023-03-13T11:00:41.268Z,11.26
2023-03-13T11:03:34.735Z,11.35
2023-03-13T11:06:03.388Z,11.34
2023-03-13T11:08:37.358Z,11.42
2023-03-13T11:11:19.213Z,11.54
2023-03-13T11:13:46.821Z,11.61
2023-03-13T11:16:46.847Z,11.83
2023-03-13T11:19:14.041Z,11.77
2023-03-13T11:22:09.120Z,11.88
2023-03-13T11:24:48.669Z,12.00
2023-03-13T11:27:49.844Z,12.09
2023-03-13T11:30:44.761Z,12.16
2023-03-13T11:33:22.891Z,12.26
2023-03-13T11:36:02.323Z,12.43
2023-03-13T11:38:43.695Z,12.51
2023-03-13T11:41:46.450Z,12.58
2023-03-13T11:44:23.374Z,12.68
2023-03-13T11:47:01.705Z,12.56
2023-03-13T11:49:39.700Z,12.67
2023-03-13T11:52:19.672Z,12.88
2023-03-13T11:55:18.157Z,12.89
2023-03-13T11:57:57.676Z,13.00
2023-03-13T12:00:46.335Z,12.85
2023-03-13T12:03:48.614Z,12.97
2023-03-13T12:06:28.416Z,13.09
2023-03-13T12:09:04.768Z,13.24
2023-03-13T12:11:43.594Z,13.31
2023-03-13T12:14:18.962Z,13.30
2023-03-13T12:16:59.278Z,13.57
2023-03-13T12:19:34.891Z,13.56
2023-03-13T12:22:15.458Z,13.57
2023-03-13T12:25:26.136Z,13.63
2023-03-13T12:27:59.646Z,13.80
2023-03-13T12:30:40.225Z,14.00
2023-03-13T12:33:27.420Z,14.12
2023-03-13T12:36:04.102Z,14.20
2023-03-13T12:38:56.755Z,14.20
2023-03-13T12:41:28.222Z,14.27
2023-03-13T12:44:08.353Z,14.26
2023-03-13T12:46:46.277Z,14.60
2023-03-13T12:49:41.437Z,14.76
2023-03-13T12:52:40.678Z,14.70
2023-03-13T12:55:34.122Z,14.63
2023-03-13T12:58:29.271Z,14.55
2023-03-13T13:00:57.592Z,14.52
2023-03-13T13:03:32.010Z,14.37
2023-03-13T13:06:11.872Z,14.35
2023-03-13T13:08:47.794Z,14.58
2023-03-13T13:11:33.856Z,14.60
2023-03-13T13:14:22.321Z,14.47
2023-03-13T13:16:58.303Z,14.32
2023-03-13T13:19:28.153Z,14.20
2023-03-13T13:22:33.498Z,14.28
2023-03-13T13:25:01.545Z,14.35
2023-03-13T13:27:49.418Z,14.30
2023-03-13T13:30:19.507Z,14.47
2023-03-13T13:32:47.356Z,14.57
2023-03-13T13:35:33.010Z,14.70
2023-03-13T13:38:18.989Z,14.77
2023-03-13T13:41:06.109Z,14.58
2023-03-13T13:43:35.559Z,14.52
2023-03-13T13:46:23.902Z,14.60
2023-03-13T13:49:11.780Z,14.68
2023-03-13T13:51:40.373Z,14.84
2023-03-13T13:54:16.329Z,14.74
2023-03-13T13:57:02.538Z,14.81
2023-03-13T13:59:40.054Z,14.88
2023-03-13T14:02:15.554Z,14.82
2023-03-13T14:04:50.796Z,14.86
2023-03-13T14:07:41.809Z,14.87
2023-03-13T14:10:40.705Z,14.87
2023-03-13T14:13:18.102Z,14.82
2023-03-13T14:15:48.989Z,14.79
2023-03-13T14:18:21.396Z,14.88
2023-03-13T14:20:58.467Z,14.88
2023-03-13T14:23:42.558Z,14.78
2023-03-13T14:26:18.698Z,15.02
2023-03-13T14:28:48.990Z,14.89
2023-03-13T14:31:42.899Z,15.06
2023-03-13T14:34:13.630Z,15.02
2023-03-13T14:36:51.856Z,14.96
2023-03-13T14:39:31.394Z,14.75
2023-03-13T14:42:12.881Z,14.87
2023-03-13T14:44:44.026Z,14.97
2023-03-13T14:47:27.256Z,14.95
2023-03-13T14:50:13.375Z,15.00
2023-03-13T14:52:46.876Z,14.84
2023-03-13T14:55:23.216Z,14.91
2023-03-13T14:58:27.633Z,14.68
2023-03-13T15:00:55.658Z,14.55
2023-03-13T15:03:31.619Z,14.50
2023-03-13T15:06:12.441Z,14.36
2023-03-13T15:09:27.791Z,14.51
2023-03-13T15:12:00.049Z,14.59
2023-03-13T15:14:51.933Z,14.63
2023-03-13T15:17:25.051Z,14.49
2023-03-13T15:19:54.709Z,14.59
2023-03-13T15:22:29.019Z,14.59
2023-03-13T15:25:06.004Z,14.40
2023-03-13T15:27:34.087Z,14.36
2023-03-13T15:30:01.402Z,14.38
2023-03-13T15:32:34.780Z,14.34
2023-03-13T15:35:02.242Z,14.37
2023-03-13T15:37:30.820Z,14.33
2023-03-13T15:39:58.670Z,14.30
2023-03-13T15:42:26.414Z,14.36
2023-03-13T15:44:53.756Z,14.48
2023-03-13T15:47:22.699Z,14.48
2023-03-13T15:49:53.963Z,14.58
2023-03-13T15:52:25.347Z,14.52
2023-03-13T15:54:52.624Z,14.40
2023-03-13T15:57:23.510Z,14.45
2023-03-13T15:59:53.009Z,14.55
2023-03-13T16:02:23.462Z,14.60
2023-03-13T16:04:51.897Z,14.71
2023-03-13T16:07:21.325Z,14.64
2023-03-13T16:09:49.151Z,14.54
2023-03-13T16:12:16.430Z,14.60
2023-03-13T16:14:43.672Z,14.59
2023-03-13T16:17:15.979Z,14.38
2023-03-13T16:19:47.124Z,14.23
2023-03-13T16:22:15.004Z,14.33
2023-03-13T16:24:42.703Z,14.30
2023-03-13T16:27:16.344Z,14.30
2023-03-13T16:29:44.760Z,14.20
2023-03-13T16:32:17.125Z,14.18
2023-03-13T16:34:44.416Z,14.11
2023-03-13T16:37:18.537Z,14.04
2023-03-13T16:39:46.053Z,14.06
2023-03-13T16:42:15.656Z,14.04
2023-03-13T16:44:42.997Z,13.94
2023-03-13T16:47:26.502Z,13.86
2023-03-13T16:50:12.942Z,13.81
2023-03-13T16:52:40.321Z,13.85
2023-03-13T16:55:08.298Z,13.90
2023-03-13T16:57:35.641Z,13.79
2023-03-13T17:00:05.521Z,13.73
2023-03-13T17:02:37.499Z,13.71
2023-03-13T17:05:05.078Z,13.62
2023-03-13T17:07:37.258Z,13.58
2023-03-13T17:10:10.625Z,13.54
2023-03-13T17:12:38.059Z,13.51
2023-03-13T17:15:16.034Z,13.42
2023-03-13T17:17:48.792Z,13.34
2023-03-13T17:20:17.126Z,13.37
2023-03-13T17:22:44.900Z,13.43
2023-03-13T17:25:12.363Z,13.42
2023-03-13T17:27:40.677Z,13.45
2023-03-13T17:30:24.675Z,13.42
2023-03-13T17:32:52.281Z,13.39
2023-03-13T17:35:25.858Z,13.36
2023-03-13T17:37:53.138Z,13.40
2023-03-13T17:40:26.871Z,13.33
2023-03-13T17:42:55.621Z,13.38
2023-03-13T17:45:25.162Z,13.34
2023-03-13T17:47:54.550Z,13.24
2023-03-13T17:50:28.693Z,13.14
2023-03-13T17:52:56.370Z,13.13
2023-03-13T17:55:25.979Z,13.18
2023-03-13T17:57:53.918Z,13.27
2023-03-13T18:00:28.971Z,13.28
2023-03-13T18:02:56.700Z,13.25
2023-03-13T18:05:25.107Z,13.22
2023-03-13T18:07:54.518Z,13.24
2023-03-13T18:10:25.886Z,13.26
2023-03-13T18:12:53.574Z,13.36
2023-03-13T18:15:22.552Z,13.43
2023-03-13T18:17:51.222Z,13.41
2023-03-13T18:20:23.986Z,13.37
2023-03-13T18:22:51.727Z,13.46
2023-03-13T18:25:19.500Z,13.45
2023-03-13T18:27:46.848Z,13.50
2023-03-13T18:30:20.086Z,13.51
2023-03-13T18:32:47.868Z,13.54
2023-03-13T18:35:15.511Z,13.44
2023-03-13T18:37:45.120Z,13.43
2023-03-13T18:40:20.246Z,13.43
2023-03-13T18:42:48.043Z,13.45
2023-03-13T18:45:17.322Z,13.45
2023-03-13T18:47:44.884Z,13.37
2023-03-13T18:50:30.851Z,13.41
2023-03-13T18:53:01.118Z,13.40
2023-03-13T18:55:30.708Z,13.43
2023-03-13T18:57:58.312Z,13.38
2023-03-13T19:00:30.481Z,13.48
2023-03-13T19:02:57.788Z,13.47
2023-03-13T19:05:25.038Z,13.49
2023-03-13T19:07:52.564Z,13.34
2023-03-13T19:10:24.158Z,13.34
2023-03-13T19:12:53.631Z,13.31
2023-03-13T19:15:28.037Z,13.28
2023-03-13T19:17:58.166Z,13.19
2023-03-13T19:20:25.739Z,13.20
2023-03-13T19:22:54.508Z,13.23
2023-03-13T19:25:30.606Z,13.23
2023-03-13T19:27:58.020Z,13.22
2023-03-13T19:30:26.417Z,13.17
2023-03-13T19:32:53.900Z,13.13
2023-03-13T19:35:22.638Z,13.05
2023-03-13T19:37:50.228Z,13.02
2023-03-13T19:40:26.220Z,13.03
2023-03-13T19:42:54.568Z,13.04
2023-03-13T19:45:29.306Z,12.96
2023-03-13T19:48:05.704Z,12.94
2023-03-13T19:50:33.072Z,12.85
2023-03-13T19:53:00.491Z,12.87
2023-03-13T19:55:27.734Z,12.85
2023-03-13T19:57:55.058Z,12.92
2023-03-13T20:00:25.568Z,12.91
2023-03-13T20:02:55.127Z,12.92
2023-03-13T20:05:23.594Z,12.83
2023-03-13T20:07:53.351Z,12.69
2023-03-13T20:10:21.286Z,12.74
2023-03-13T20:12:48.820Z,12.78
2023-03-13T20:15:16.145Z,12.74
2023-03-13T20:17:51.442Z,12.79
2023-03-13T20:20:29.762Z,12.71
2023-03-13T20:23:05.920Z,12.59
2023-03-13T20:25:33.135Z,12.60
2023-03-13T20:28:01.114Z,12.52
2023-03-13T20:30:28.564Z,12.56
2023-03-13T20:32:59.566Z,12.56
2023-03-13T20:35:28.405Z,12.55
2023-03-13T20:37:57.857Z,12.55
2023-03-13T20:40:25.185Z,12.48
2023-03-13T20:42:58.408Z,12.44
2023-03-13T20:45:30.581Z,12.43
2023-03-13T20:47:58.785Z,12.44
2023-03-13T20:50:30.251Z,12.47
2023-03-13T20:52:57.509Z,12.47
2023-03-13T20:55:26.906Z,12.43
2023-03-13T21:00:44.005Z,12.36
2023-03-13T21:03:12.336Z,12.33
2023-03-13T21:05:40.174Z,12.35
2023-03-13T21:08:07.833Z,12.38
2023-03-13T21:10:42.065Z,12.41
2023-03-13T21:13:13.403Z,12.42
2023-03-13T21:15:41.032Z,12.39
2023-03-13T21:18:08.656Z,12.44
2023-03-13T21:20:37.165Z,12.40
2023-03-13T21:23:04.601Z,12.43
2023-03-13T21:25:31.968Z,12.45
2023-03-13T21:28:05.618Z,12.47
2023-03-13T21:30:32.857Z,12.40
2023-03-13T21:33:00.208Z,12.49
2023-03-13T21:35:27.544Z,12.43
2023-03-13T21:37:55.039Z,12.44
2023-03-13T21:40:22.415Z,12.45
2023-03-13T21:42:56.331Z,12.37
2023-03-13T21:45:30.334Z,12.33
2023-03-13T21:47:59.487Z,12.35
2023-03-13T21:50:26.932Z,12.26
2023-03-13T21:52:54.213Z,12.27
2023-03-13T21:55:21.569Z,12.27
2023-03-13T21:57:51.562Z,12.30
2023-03-13T22:00:20.153Z,12.34
2023-03-13T22:02:47.441Z,12.42
2023-03-13T22:05:16.896Z,12.37
2023-03-13T22:07:47.508Z,12.39
2023-03-13T22:10:18.954Z,12.41
2023-03-13T22:12:46.190Z,12.34
2023-03-13T22:15:13.582Z,12.32
2023-03-13T22:17:40.891Z,12.37
2023-03-13T22:20:09.216Z,12.36
2023-03-13T22:22:36.728Z,12.37
2023-03-13T22:25:04.247Z,12.39
2023-03-13T22:27:33.052Z,12.37
2023-03-13T22:30:02.636Z,12.35
2023-03-13T22:32:30.510Z,12.40
2023-03-13T22:34:57.862Z,12.40
2023-03-13T22:37:26.791Z,12.43
2023-03-13T22:39:54.845Z,12.44
2023-03-13T22:42:22.831Z,12.44
2023-03-13T22:44:50.118Z,12.44
2023-03-13T22:47:17.302Z,12.25
2023-03-13T22:49:44.684Z,12.31
2023-03-13T22:52:11.957Z,12.21
2023-03-13T22:54:39.213Z,12.24
2023-03-13T22:57:06.596Z,12.19
2023-03-13T22:59:33.909Z,12.10
2023-03-13T23:02:01.146Z,12.15
2023-03-13T23:04:28.354Z,12.20
2023-03-13T23:06:55.825Z,12.11
2023-03-13T23:09:23.595Z,12.10
2023-03-13T23:11:50.792Z,12.02
2023-03-13T23:14:19.275Z,11.98
2023-03-13T23:16:46.670Z,11.97
2023-03-13T23:19:13.930Z,11.91
2023-03-13T23:21:41.540Z,11.95
2023-03-13T23:24:08.998Z,11.93
2023-03-13T23:26:36.282Z,11.86
2023-03-13T23:29:03.835Z,11.88
2023-03-13T23:31:31.138Z,11.88
2023-03-13T23:33:59.225Z,11.87
2023-03-13T23:36:26.506Z,11.80
2023-03-13T23:38:54.876Z,11.73
2023-03-13T23:41:22.484Z,11.60
2023-03-13T23:43:50.038Z,11.59
2023-03-13T23:46:22.519Z,11.54
2023-03-13T23:48:54.983Z,11.52
2023-03-13T23:51:22.930Z,11.50
2023-03-13T23:53:52.299Z,11.47
2023-03-13T23:56:19.623Z,11.45
2023-03-13T23:58:46.866Z,11.41
